N93SJ EDDC-EDDC

Flight info

Callsign N93SJ
Flight time 0h 13m
Altitude 4000
Route DRN
Aircraft SF50/L-SDGRWY/L

Departure

Time 2026-04-28 14:01
Airport Dresden Airport (EDDC)

Arrival

Time 2026-04-28 14:15
Airport Dresden Airport (EDDC)
Time Latitude Longitude Altitude Speed Heading
2026-04-28 13:43 51.12339 13.75930 700 ft 0 kts 221°
2026-04-28 13:56 51.12337 13.75927 699 ft 2 kts 220°
2026-04-28 13:56 51.12310 13.75943 701 ft 10 kts 89°
2026-04-28 13:57 51.12339 13.76010 701 ft 0 kts
2026-04-28 13:57 51.12362 13.76010 704 ft 8 kts 358°
2026-04-28 13:57 51.12426 13.75941 700 ft 16 kts 311°
2026-04-28 13:57 51.12412 13.75873 703 ft 10 kts 221°
2026-04-28 13:58 51.12368 13.75790 704 ft 8 kts 261°
2026-04-28 13:58 51.12392 13.75673 704 ft 6 kts 292°
2026-04-28 13:58 51.12396 13.75656 697 ft 3 kts 292°
2026-04-28 13:58 51.12403 13.75630 701 ft 1 kts 292°
2026-04-28 13:59 51.12416 13.75591 703 ft 8 kts 310°
2026-04-28 13:59 51.12475 13.75511 706 ft 15 kts 358°
2026-04-28 13:59 51.12532 13.75559 706 ft 0 kts 40°
2026-04-28 13:59 51.12582 13.75626 698 ft 33 kts 41°
2026-04-28 14:00 51.12907 13.76072 701 ft 90 kts 40°
2026-04-28 14:00 51.13470 13.76820 905 ft 111 kts 41°
2026-04-28 14:00 51.14191 13.77444 1117 ft 125 kts 12°
2026-04-28 14:00 51.14991 13.76945 1270 ft 139 kts 312°
2026-04-28 14:01 51.14962 13.75327 1284 ft 158 kts 248°
2026-04-28 14:01 51.14378 13.73843 1324 ft 160 kts 228°
2026-04-28 14:01 51.13516 13.72654 1281 ft 163 kts 217°
2026-04-28 14:01 51.12617 13.71649 1366 ft 145 kts 209°
2026-04-28 14:02 51.11809 13.70844 1224 ft 139 kts 207°
2026-04-28 14:02 51.11015 13.70108 1215 ft 124 kts 207°
2026-04-28 14:02 51.10197 13.69740 965 ft 127 kts 160°
2026-04-28 14:02 51.09499 13.70429 1022 ft 117 kts 127°
2026-04-28 14:03 51.09037 13.71486 1013 ft 110 kts 81°
2026-04-28 14:03 51.09486 13.72257 1057 ft 99 kts 21°
2026-04-28 14:03 51.10119 13.72588 1001 ft 98 kts 23°
2026-04-28 14:03 51.10760 13.73181 1063 ft 114 kts 34°
2026-04-28 14:04 51.11430 13.73975 1010 ft 110 kts 39°
2026-04-28 14:04 51.11903 13.74690 816 ft 84 kts 26°
2026-04-28 14:04 51.12418 13.75336 739 ft 98 kts 42°
2026-04-28 14:04 51.12885 13.76036 712 ft 89 kts 41°
2026-04-28 14:05 51.13305 13.76619 702 ft 70 kts 37°
2026-04-28 14:05 51.13739 13.77244 757 ft 90 kts 41°
2026-04-28 14:05 51.14090 13.78010 936 ft 92 kts 78°
2026-04-28 14:05 51.13876 13.79016 1078 ft 102 kts 116°
2026-04-28 14:06 51.13206 13.79751 1088 ft 138 kts 159°
2026-04-28 14:06 51.12168 13.79580 1290 ft 145 kts 204°
2026-04-28 14:06 51.11436 13.78598 1226 ft 136 kts 235°
2026-04-28 14:06 51.10900 13.77405 1181 ft 126 kts 236°
2026-04-28 14:07 51.10343 13.76261 957 ft 134 kts 233°
2026-04-28 14:07 51.09708 13.75162 923 ft 143 kts 231°
2026-04-28 14:07 51.09058 13.74023 968 ft 135 kts 227°
2026-04-28 14:07 51.08434 13.72877 1033 ft 144 kts 230°
2026-04-28 14:08 51.08029 13.71415 1102 ft 152 kts 278°
2026-04-28 14:08 51.08595 13.70269 1168 ft 123 kts 349°
2026-04-28 14:08 51.09267 13.70772 1092 ft 109 kts 49°
2026-04-28 14:08 51.09758 13.71674 935 ft 112 kts 44°
2026-04-28 14:09 51.10309 13.72502 926 ft 106 kts 39°
2026-04-28 14:09 51.10866 13.73304 906 ft 116 kts 38°
2026-04-28 14:09 51.11457 13.74223 960 ft 124 kts 39°
2026-04-28 14:09 51.12214 13.75088 835 ft 143 kts 34°
2026-04-28 14:10 51.12982 13.76159 737 ft 147 kts 41°
2026-04-28 14:10 51.13721 13.77192 730 ft 138 kts 41°
2026-04-28 14:10 51.14571 13.77898 1059 ft 151 kts 358°
2026-04-28 14:10 51.15500 13.76995 1363 ft 172 kts 319°
2026-04-28 14:11 51.16080 13.75619 1810 ft 136 kts 282°
2026-04-28 14:11 51.15677 13.74263 1540 ft 144 kts 215°
2026-04-28 14:11 51.14852 13.73442 1484 ft 135 kts 201°
2026-04-28 14:11 51.14009 13.72799 1453 ft 130 kts 199°
2026-04-28 14:12 51.13202 13.72051 1258 ft 134 kts 212°
2026-04-28 14:12 51.12451 13.71180 1132 ft 128 kts 215°
2026-04-28 14:12 51.11669 13.70387 1096 ft 134 kts 207°
2026-04-28 14:12 51.10851 13.69734 1045 ft 138 kts 204°
2026-04-28 14:13 51.09985 13.69296 999 ft 123 kts 159°
2026-04-28 14:13 51.09389 13.70134 918 ft 115 kts 86°
2026-04-28 14:13 51.09727 13.71162 919 ft 111 kts 47°
2026-04-28 14:13 51.10256 13.72151 933 ft 118 kts 47°
2026-04-28 14:14 51.10846 13.73087 845 ft 120 kts 32°
2026-04-28 14:14 51.11424 13.73970 844 ft 115 kts 52°
2026-04-28 14:14 51.12079 13.74837 818 ft 134 kts 34°
2026-04-28 14:14 51.12752 13.75834 764 ft 125 kts 42°
2026-04-28 14:15 51.13308 13.76619 705 ft 92 kts 40°
2026-04-28 14:15 51.13625 13.77056 706 ft 25 kts 42°
2026-04-28 14:15 51.13738 13.77215 702 ft 19 kts 43°
2026-04-28 14:15 51.13831 13.77345 707 ft 19 kts 40°
2026-04-28 14:16 51.13905 13.77499 706 ft 17 kts 106°
2026-04-28 14:16 51.13851 13.77606 705 ft 5 kts 130°
2026-04-28 14:16 51.13826 13.77655 705 ft 0 kts 129°
2026-04-28 14:17 51.13825 13.77655 705 ft 1 kts 129°
2026-04-28 14:17 51.13789 13.77710 700 ft 13 kts 145°
2026-04-28 14:17 51.13684 13.77622 699 ft 25 kts 221°
2026-04-28 14:17 51.13525 13.77401 704 ft 29 kts 221°
2026-04-28 14:18 51.13342 13.77152 702 ft 38 kts 220°
2026-04-28 14:18 51.13160 13.76902 704 ft 40 kts 216°
2026-04-28 14:18 51.12970 13.76640 697 ft 35 kts 220°
2026-04-28 14:18 51.12785 13.76386 699 ft 34 kts 220°
2026-04-28 14:19 51.12588 13.76113 704 ft 33 kts 221°
2026-04-28 14:19 51.12448 13.75922 704 ft 9 kts 194°
2026-04-28 14:19 51.12384 13.76019 700 ft 12 kts 132°
2026-04-28 14:19 51.12335 13.75998 704 ft 5 kts 280°
2026-04-28 14:20 51.12340 13.75985 695 ft 0 kts 315°